sensor_id;sensor_type;location;lat;lon;timestamp;temperature;humidity
15413;DHT22;7805;49.554;7.632;2023-06-24T00:01:49;17.70;99.90
15413;DHT22;7805;49.554;7.632;2023-06-24T00:04:15;17.80;99.90
15413;DHT22;7805;49.554;7.632;2023-06-24T00:06:42;17.60;99.90
15413;DHT22;7805;49.554;7.632;2023-06-24T00:09:07;17.70;99.90
15413;DHT22;7805;49.554;7.632;2023-06-24T00:11:33;17.70;99.90
15413;DHT22;7805;49.554;7.632;2023-06-24T00:13:59;17.70;99.90
15413;DHT22;7805;49.554;7.632;2023-06-24T00:16:24;17.60;99.90
15413;DHT22;7805;49.554;7.632;2023-06-24T00:18:54;17.60;99.90
15413;DHT22;7805;49.554;7.632;2023-06-24T00:21:24;17.70;99.90
15413;DHT22;7805;49.554;7.632;2023-06-24T00:23:58;17.80;99.90
15413;DHT22;7805;49.554;7.632;2023-06-24T00:26:24;17.60;99.90
15413;DHT22;7805;49.554;7.632;2023-06-24T00:28:50;17.50;99.90
15413;DHT22;7805;49.554;7.632;2023-06-24T00:31:16;17.50;99.90
15413;DHT22;7805;49.554;7.632;2023-06-24T00:33:41;17.40;99.90
15413;DHT22;7805;49.554;7.632;2023-06-24T00:36:07;17.40;99.90
15413;DHT22;7805;49.554;7.632;2023-06-24T00:38:37;17.40;99.90
15413;DHT22;7805;49.554;7.632;2023-06-24T00:41:03;17.40;99.90
15413;DHT22;7805;49.554;7.632;2023-06-24T00:43:29;17.40;99.90
15413;DHT22;7805;49.554;7.632;2023-06-24T00:45:56;17.30;99.90
15413;DHT22;7805;49.554;7.632;2023-06-24T00:48:22;17.30;99.90
15413;DHT22;7805;49.554;7.632;2023-06-24T00:50:48;17.10;99.90
15413;DHT22;7805;49.554;7.632;2023-06-24T00:53:18;17.00;99.90
15413;DHT22;7805;49.554;7.632;2023-06-24T00:55:47;17.10;99.90
15413;DHT22;7805;49.554;7.632;2023-06-24T00:58:13;17.00;99.90
15413;DHT22;7805;49.554;7.632;2023-06-24T01:00:42;17.10;99.90
15413;DHT22;7805;49.554;7.632;2023-06-24T01:03:10;17.10;99.90
15413;DHT22;7805;49.554;7.632;2023-06-24T01:05:45;17.10;99.90
15413;DHT22;7805;49.554;7.632;2023-06-24T01:08:11;17.00;99.90
15413;DHT22;7805;49.554;7.632;2023-06-24T01:10:41;16.80;99.90
15413;DHT22;7805;49.554;7.632;2023-06-24T01:13:07;16.80;99.90
15413;DHT22;7805;49.554;7.632;2023-06-24T01:15:34;16.80;99.90
15413;DHT22;7805;49.554;7.632;2023-06-24T01:20:56;16.80;99.90
15413;DHT22;7805;49.554;7.632;2023-06-24T01:24:08;16.80;99.90
15413;DHT22;7805;49.554;7.632;2023-06-24T01:27:03;16.80;99.90
15413;DHT22;7805;49.554;7.632;2023-06-24T01:29:44;16.80;99.90
15413;DHT22;7805;49.554;7.632;2023-06-24T01:32:22;16.80;99.90
15413;DHT22;7805;49.554;7.632;2023-06-24T01:34:58;16.70;99.90
15413;DHT22;7805;49.554;7.632;2023-06-24T01:37:41;16.70;99.90
15413;DHT22;7805;49.554;7.632;2023-06-24T01:40:18;16.80;99.90
15413;DHT22;7805;49.554;7.632;2023-06-24T01:42:46;16.70;99.90
15413;DHT22;7805;49.554;7.632;2023-06-24T01:45:22;16.70;99.90
15413;DHT22;7805;49.554;7.632;2023-06-24T01:47:58;16.60;99.90
15413;DHT22;7805;49.554;7.632;2023-06-24T01:50:26;16.60;99.90
15413;DHT22;7805;49.554;7.632;2023-06-24T01:52:53;16.50;99.90
15413;DHT22;7805;49.554;7.632;2023-06-24T01:55:21;16.50;99.90
15413;DHT22;7805;49.554;7.632;2023-06-24T01:57:50;16.40;99.90
15413;DHT22;7805;49.554;7.632;2023-06-24T02:00:17;16.40;99.90
15413;DHT22;7805;49.554;7.632;2023-06-24T02:02:43;16.40;99.90
15413;DHT22;7805;49.554;7.632;2023-06-24T02:05:11;16.30;99.90
15413;DHT22;7805;49.554;7.632;2023-06-24T02:07:38;16.30;99.90
15413;DHT22;7805;49.554;7.632;2023-06-24T02:10:05;16.30;99.90
15413;DHT22;7805;49.554;7.632;2023-06-24T02:12:32;16.30;99.90
15413;DHT22;7805;49.554;7.632;2023-06-24T02:14:58;16.30;99.90
15413;DHT22;7805;49.554;7.632;2023-06-24T02:17:25;16.30;99.90
15413;DHT22;7805;49.554;7.632;2023-06-24T02:19:52;16.30;99.90
15413;DHT22;7805;49.554;7.632;2023-06-24T02:22:20;16.30;99.90
15413;DHT22;7805;49.554;7.632;2023-06-24T02:24:47;16.30;99.90
15413;DHT22;7805;49.554;7.632;2023-06-24T02:27:14;16.20;99.90
15413;DHT22;7805;49.554;7.632;2023-06-24T02:29:40;16.40;99.90
15413;DHT22;7805;49.554;7.632;2023-06-24T02:32:07;16.10;99.90
15413;DHT22;7805;49.554;7.632;2023-06-24T02:34:34;16.10;99.90
15413;DHT22;7805;49.554;7.632;2023-06-24T02:36:59;16.20;99.90
15413;DHT22;7805;49.554;7.632;2023-06-24T02:39:25;16.10;99.90
15413;DHT22;7805;49.554;7.632;2023-06-24T02:41:50;16.00;99.90
15413;DHT22;7805;49.554;7.632;2023-06-24T02:44:16;16.00;99.90
15413;DHT22;7805;49.554;7.632;2023-06-24T02:46:46;16.00;99.90
15413;DHT22;7805;49.554;7.632;2023-06-24T02:49:15;16.00;99.90
15413;DHT22;7805;49.554;7.632;2023-06-24T02:51:43;16.00;99.90
15413;DHT22;7805;49.554;7.632;2023-06-24T02:54:09;15.90;99.90
15413;DHT22;7805;49.554;7.632;2023-06-24T02:56:36;15.90;99.90
15413;DHT22;7805;49.554;7.632;2023-06-24T02:59:07;15.90;99.90
15413;DHT22;7805;49.554;7.632;2023-06-24T03:01:34;15.90;99.90
15413;DHT22;7805;49.554;7.632;2023-06-24T03:04:04;16.10;99.90
15413;DHT22;7805;49.554;7.632;2023-06-24T03:06:31;15.90;99.90
15413;DHT22;7805;49.554;7.632;2023-06-24T03:08:58;15.90;99.90
15413;DHT22;7805;49.554;7.632;2023-06-24T03:11:25;15.80;99.90
15413;DHT22;7805;49.554;7.632;2023-06-24T03:13:51;15.90;99.90
15413;DHT22;7805;49.554;7.632;2023-06-24T03:16:17;15.80;99.90
15413;DHT22;7805;49.554;7.632;2023-06-24T03:18:43;15.80;99.90
15413;DHT22;7805;49.554;7.632;2023-06-24T03:21:09;15.70;99.90
15413;DHT22;7805;49.554;7.632;2023-06-24T03:23:35;15.70;99.90
15413;DHT22;7805;49.554;7.632;2023-06-24T03:26:01;15.80;99.90
15413;DHT22;7805;49.554;7.632;2023-06-24T03:28:29;15.70;99.90
15413;DHT22;7805;49.554;7.632;2023-06-24T03:30:55;15.60;99.90
15413;DHT22;7805;49.554;7.632;2023-06-24T03:33:21;15.50;99.90
15413;DHT22;7805;49.554;7.632;2023-06-24T03:35:46;15.50;99.90
15413;DHT22;7805;49.554;7.632;2023-06-24T03:38:12;15.50;99.90
15413;DHT22;7805;49.554;7.632;2023-06-24T03:40:38;15.40;99.90
15413;DHT22;7805;49.554;7.632;2023-06-24T03:43:03;15.50;99.90
15413;DHT22;7805;49.554;7.632;2023-06-24T03:45:29;15.60;99.90
15413;DHT22;7805;49.554;7.632;2023-06-24T03:47:54;15.50;99.90
15413;DHT22;7805;49.554;7.632;2023-06-24T03:50:20;15.50;99.90
15413;DHT22;7805;49.554;7.632;2023-06-24T03:52:45;15.70;99.90
15413;DHT22;7805;49.554;7.632;2023-06-24T03:55:11;15.60;99.90
15413;DHT22;7805;49.554;7.632;2023-06-24T03:57:37;15.60;99.90
15413;DHT22;7805;49.554;7.632;2023-06-24T04:00:03;15.80;99.90
15413;DHT22;7805;49.554;7.632;2023-06-24T04:02:40;15.60;99.90
15413;DHT22;7805;49.554;7.632;2023-06-24T04:05:07;15.60;99.90
15413;DHT22;7805;49.554;7.632;2023-06-24T04:07:33;15.70;99.90
15413;DHT22;7805;49.554;7.632;2023-06-24T04:10:02;15.70;99.90
15413;DHT22;7805;49.554;7.632;2023-06-24T04:12:28;15.70;99.90
15413;DHT22;7805;49.554;7.632;2023-06-24T04:14:53;15.70;99.90
15413;DHT22;7805;49.554;7.632;2023-06-24T04:17:19;15.70;99.90
15413;DHT22;7805;49.554;7.632;2023-06-24T04:19:44;15.70;99.90
15413;DHT22;7805;49.554;7.632;2023-06-24T04:22:10;15.70;99.90
15413;DHT22;7805;49.554;7.632;2023-06-24T04:24:35;15.70;99.90
15413;DHT22;7805;49.554;7.632;2023-06-24T04:27:01;15.70;99.90
15413;DHT22;7805;49.554;7.632;2023-06-24T04:29:27;15.70;99.90
15413;DHT22;7805;49.554;7.632;2023-06-24T04:31:52;15.70;99.90
15413;DHT22;7805;49.554;7.632;2023-06-24T04:34:18;15.80;99.90
15413;DHT22;7805;49.554;7.632;2023-06-24T04:36:43;15.90;99.90
15413;DHT22;7805;49.554;7.632;2023-06-24T04:39:09;15.90;99.90
15413;DHT22;7805;49.554;7.632;2023-06-24T04:41:34;16.00;99.90
15413;DHT22;7805;49.554;7.632;2023-06-24T04:44:00;16.00;99.90
15413;DHT22;7805;49.554;7.632;2023-06-24T04:46:25;16.00;99.90
15413;DHT22;7805;49.554;7.632;2023-06-24T04:48:51;16.10;99.90
15413;DHT22;7805;49.554;7.632;2023-06-24T04:51:17;16.20;99.90
15413;DHT22;7805;49.554;7.632;2023-06-24T04:53:42;16.20;99.90
15413;DHT22;7805;49.554;7.632;2023-06-24T04:56:08;16.20;99.90
15413;DHT22;7805;49.554;7.632;2023-06-24T04:58:33;16.30;99.90
15413;DHT22;7805;49.554;7.632;2023-06-24T05:00:59;16.30;99.90
15413;DHT22;7805;49.554;7.632;2023-06-24T05:03:24;16.40;99.90
15413;DHT22;7805;49.554;7.632;2023-06-24T05:05:50;16.50;99.90
15413;DHT22;7805;49.554;7.632;2023-06-24T05:08:16;16.60;99.90
15413;DHT22;7805;49.554;7.632;2023-06-24T05:10:41;16.80;99.90
15413;DHT22;7805;49.554;7.632;2023-06-24T05:13:07;16.90;99.90
15413;DHT22;7805;49.554;7.632;2023-06-24T05:15:33;16.90;99.90
15413;DHT22;7805;49.554;7.632;2023-06-24T05:17:58;17.00;99.90
15413;DHT22;7805;49.554;7.632;2023-06-24T05:20:24;17.20;99.90
15413;DHT22;7805;49.554;7.632;2023-06-24T05:22:49;17.40;99.90
15413;DHT22;7805;49.554;7.632;2023-06-24T05:25:15;17.60;99.90
15413;DHT22;7805;49.554;7.632;2023-06-24T05:27:41;17.80;99.90
15413;DHT22;7805;49.554;7.632;2023-06-24T05:30:07;18.10;99.90
15413;DHT22;7805;49.554;7.632;2023-06-24T05:32:32;17.40;99.90
15413;DHT22;7805;49.554;7.632;2023-06-24T05:34:58;18.40;99.90
15413;DHT22;7805;49.554;7.632;2023-06-24T05:37:23;18.50;99.90
15413;DHT22;7805;49.554;7.632;2023-06-24T05:39:49;18.50;99.90
15413;DHT22;7805;49.554;7.632;2023-06-24T05:42:15;18.70;99.90
15413;DHT22;7805;49.554;7.632;2023-06-24T05:44:40;18.90;99.90
15413;DHT22;7805;49.554;7.632;2023-06-24T05:47:06;19.10;99.90
15413;DHT22;7805;49.554;7.632;2023-06-24T05:49:31;19.30;99.90
15413;DHT22;7805;49.554;7.632;2023-06-24T05:51:58;19.40;99.90
15413;DHT22;7805;49.554;7.632;2023-06-24T05:54:24;19.60;99.90
15413;DHT22;7805;49.554;7.632;2023-06-24T05:56:50;19.80;99.90
15413;DHT22;7805;49.554;7.632;2023-06-24T05:59:15;20.10;99.90
15413;DHT22;7805;49.554;7.632;2023-06-24T06:01:41;20.20;99.90
15413;DHT22;7805;49.554;7.632;2023-06-24T06:04:06;20.50;99.90
15413;DHT22;7805;49.554;7.632;2023-06-24T06:06:32;20.70;99.90
15413;DHT22;7805;49.554;7.632;2023-06-24T06:08:58;20.90;99.90
15413;DHT22;7805;49.554;7.632;2023-06-24T06:11:24;21.10;99.90
15413;DHT22;7805;49.554;7.632;2023-06-24T06:13:49;21.00;99.90
15413;DHT22;7805;49.554;7.632;2023-06-24T06:16:15;21.20;99.90
15413;DHT22;7805;49.554;7.632;2023-06-24T06:18:41;21.50;99.90
15413;DHT22;7805;49.554;7.632;2023-06-24T06:21:06;21.80;99.90
15413;DHT22;7805;49.554;7.632;2023-06-24T06:23:32;22.00;99.90
15413;DHT22;7805;49.554;7.632;2023-06-24T06:25:57;22.20;99.90
15413;DHT22;7805;49.554;7.632;2023-06-24T06:28:23;22.30;99.90
15413;DHT22;7805;49.554;7.632;2023-06-24T06:30:48;22.80;99.90
15413;DHT22;7805;49.554;7.632;2023-06-24T06:33:14;22.70;99.80
15413;DHT22;7805;49.554;7.632;2023-06-24T06:35:40;23.00;99.90
15413;DHT22;7805;49.554;7.632;2023-06-24T06:38:05;23.30;99.10
15413;DHT22;7805;49.554;7.632;2023-06-24T06:40:31;23.30;98.80
15413;DHT22;7805;49.554;7.632;2023-06-24T06:42:56;23.30;98.90
15413;DHT22;7805;49.554;7.632;2023-06-24T06:45:22;23.30;98.90
15413;DHT22;7805;49.554;7.632;2023-06-24T06:47:49;23.50;99.00
15413;DHT22;7805;49.554;7.632;2023-06-24T06:50:15;23.60;98.70
15413;DHT22;7805;49.554;7.632;2023-06-24T06:52:41;23.60;98.30
15413;DHT22;7805;49.554;7.632;2023-06-24T06:55:07;23.00;98.60
15413;DHT22;7805;49.554;7.632;2023-06-24T06:57:32;23.00;99.40
15413;DHT22;7805;49.554;7.632;2023-06-24T06:59:58;23.40;99.40
15413;DHT22;7805;49.554;7.632;2023-06-24T07:02:23;23.80;98.80
15413;DHT22;7805;49.554;7.632;2023-06-24T07:04:49;24.10;98.60
15413;DHT22;7805;49.554;7.632;2023-06-24T07:07:16;24.50;98.10
15413;DHT22;7805;49.554;7.632;2023-06-24T07:09:42;24.80;97.50
15413;DHT22;7805;49.554;7.632;2023-06-24T07:12:08;25.00;97.00
15413;DHT22;7805;49.554;7.632;2023-06-24T07:14:33;24.90;96.30
15413;DHT22;7805;49.554;7.632;2023-06-24T07:16:59;25.00;96.30
15413;DHT22;7805;49.554;7.632;2023-06-24T07:19:25;25.20;96.70
15413;DHT22;7805;49.554;7.632;2023-06-24T07:21:52;25.30;96.30
15413;DHT22;7805;49.554;7.632;2023-06-24T07:24:17;25.30;95.80
15413;DHT22;7805;49.554;7.632;2023-06-24T07:26:43;25.60;95.80
15413;DHT22;7805;49.554;7.632;2023-06-24T07:29:09;26.00;95.20
15413;DHT22;7805;49.554;7.632;2023-06-24T07:31:35;26.30;94.10
15413;DHT22;7805;49.554;7.632;2023-06-24T07:34:01;26.70;93.60
15413;DHT22;7805;49.554;7.632;2023-06-24T07:36:27;27.00;93.10
15413;DHT22;7805;49.554;7.632;2023-06-24T07:38:52;27.30;92.30
15413;DHT22;7805;49.554;7.632;2023-06-24T07:41:18;27.40;91.10
15413;DHT22;7805;49.554;7.632;2023-06-24T07:43:43;27.50;91.00
15413;DHT22;7805;49.554;7.632;2023-06-24T07:46:09;27.80;90.60
15413;DHT22;7805;49.554;7.632;2023-06-24T07:48:35;27.70;89.50
15413;DHT22;7805;49.554;7.632;2023-06-24T07:51:00;27.90;89.50
15413;DHT22;7805;49.554;7.632;2023-06-24T07:53:26;28.00;86.90
15413;DHT22;7805;49.554;7.632;2023-06-24T07:55:51;27.90;85.80
15413;DHT22;7805;49.554;7.632;2023-06-24T07:58:17;28.10;87.20
15413;DHT22;7805;49.554;7.632;2023-06-24T08:00:45;28.60;85.20
15413;DHT22;7805;49.554;7.632;2023-06-24T08:03:12;28.50;83.40
15413;DHT22;7805;49.554;7.632;2023-06-24T08:05:37;28.70;80.60
15413;DHT22;7805;49.554;7.632;2023-06-24T08:08:05;28.80;82.20
15413;DHT22;7805;49.554;7.632;2023-06-24T08:10:30;29.00;80.70
15413;DHT22;7805;49.554;7.632;2023-06-24T08:12:56;28.90;79.20
15413;DHT22;7805;49.554;7.632;2023-06-24T08:15:21;29.00;79.70
15413;DHT22;7805;49.554;7.632;2023-06-24T08:17:54;29.30;78.50
15413;DHT22;7805;49.554;7.632;2023-06-24T08:20:23;29.40;76.10
15413;DHT22;7805;49.554;7.632;2023-06-24T08:22:49;29.40;75.20
15413;DHT22;7805;49.554;7.632;2023-06-24T08:25:15;29.30;75.50
15413;DHT22;7805;49.554;7.632;2023-06-24T08:27:41;29.50;74.60
15413;DHT22;7805;49.554;7.632;2023-06-24T08:30:08;29.60;73.60
15413;DHT22;7805;49.554;7.632;2023-06-24T08:32:34;29.80;72.60
15413;DHT22;7805;49.554;7.632;2023-06-24T08:35:00;29.80;72.60
15413;DHT22;7805;49.554;7.632;2023-06-24T08:37:25;29.70;71.70
15413;DHT22;7805;49.554;7.632;2023-06-24T08:39:51;29.60;70.20
15413;DHT22;7805;49.554;7.632;2023-06-24T08:42:16;29.70;71.10
15413;DHT22;7805;49.554;7.632;2023-06-24T08:44:42;30.00;68.90
15413;DHT22;7805;49.554;7.632;2023-06-24T08:47:07;30.30;68.20
15413;DHT22;7805;49.554;7.632;2023-06-24T08:49:40;30.60;68.10
15413;DHT22;7805;49.554;7.632;2023-06-24T08:52:12;30.70;66.20
15413;DHT22;7805;49.554;7.632;2023-06-24T08:54:41;30.90;65.40
15413;DHT22;7805;49.554;7.632;2023-06-24T08:57:06;31.20;65.30
15413;DHT22;7805;49.554;7.632;2023-06-24T08:59:34;31.40;64.10
15413;DHT22;7805;49.554;7.632;2023-06-24T09:02:01;31.40;61.80
15413;DHT22;7805;49.554;7.632;2023-06-24T09:04:26;31.00;62.30
15413;DHT22;7805;49.554;7.632;2023-06-24T09:06:52;30.70;61.90
15413;DHT22;7805;49.554;7.632;2023-06-24T09:09:19;30.00;61.60
15413;DHT22;7805;49.554;7.632;2023-06-24T09:11:51;30.00;62.60
15413;DHT22;7805;49.554;7.632;2023-06-24T09:14:18;29.70;61.10
15413;DHT22;7805;49.554;7.632;2023-06-24T09:16:54;29.60;62.60
15413;DHT22;7805;49.554;7.632;2023-06-24T09:19:21;29.60;61.70
15413;DHT22;7805;49.554;7.632;2023-06-24T09:21:47;29.80;62.10
15413;DHT22;7805;49.554;7.632;2023-06-24T09:24:13;30.10;61.40
15413;DHT22;7805;49.554;7.632;2023-06-24T09:26:42;30.20;60.70
15413;DHT22;7805;49.554;7.632;2023-06-24T09:29:09;30.50;60.40
15413;DHT22;7805;49.554;7.632;2023-06-24T09:31:35;30.70;59.90
15413;DHT22;7805;49.554;7.632;2023-06-24T09:34:00;31.20;59.50
15413;DHT22;7805;49.554;7.632;2023-06-24T09:36:26;31.70;58.90
15413;DHT22;7805;49.554;7.632;2023-06-24T09:38:51;31.90;57.50
15413;DHT22;7805;49.554;7.632;2023-06-24T09:41:17;32.00;56.50
15413;DHT22;7805;49.554;7.632;2023-06-24T09:43:43;32.00;56.40
15413;DHT22;7805;49.554;7.632;2023-06-24T09:46:10;31.80;56.10
15413;DHT22;7805;49.554;7.632;2023-06-24T09:48:36;31.50;56.50
15413;DHT22;7805;49.554;7.632;2023-06-24T09:51:03;31.80;56.70
15413;DHT22;7805;49.554;7.632;2023-06-24T09:53:34;31.90;56.10
15413;DHT22;7805;49.554;7.632;2023-06-24T09:56:01;32.20;55.90
15413;DHT22;7805;49.554;7.632;2023-06-24T09:58:32;32.10;55.50
15413;DHT22;7805;49.554;7.632;2023-06-24T10:01:05;32.20;55.70
15413;DHT22;7805;49.554;7.632;2023-06-24T10:03:36;32.40;55.70
15413;DHT22;7805;49.554;7.632;2023-06-24T10:06:02;32.20;54.50
15413;DHT22;7805;49.554;7.632;2023-06-24T10:08:29;31.60;53.80
15413;DHT22;7805;49.554;7.632;2023-06-24T10:10:56;31.30;54.90
15413;DHT22;7805;49.554;7.632;2023-06-24T10:13:21;31.10;55.60
15413;DHT22;7805;49.554;7.632;2023-06-24T10:15:48;31.50;56.40
15413;DHT22;7805;49.554;7.632;2023-06-24T10:21:05;31.60;55.50
15413;DHT22;7805;49.554;7.632;2023-06-24T10:23:39;31.90;55.60
15413;DHT22;7805;49.554;7.632;2023-06-24T10:26:21;32.10;54.80
15413;DHT22;7805;49.554;7.632;2023-06-24T10:37:20;31.50;54.10
15413;DHT22;7805;49.554;7.632;2023-06-24T10:39:46;30.90;55.10
15413;DHT22;7805;49.554;7.632;2023-06-24T10:44:56;31.20;55.60
15413;DHT22;7805;49.554;7.632;2023-06-24T10:47:26;31.10;55.60
15413;DHT22;7805;49.554;7.632;2023-06-24T10:49:53;31.10;55.90
15413;DHT22;7805;49.554;7.632;2023-06-24T10:52:20;31.10;55.90
15413;DHT22;7805;49.554;7.632;2023-06-24T10:54:49;31.10;55.40
15413;DHT22;7805;49.554;7.632;2023-06-24T10:57:15;30.80;55.20
15413;DHT22;7805;49.554;7.632;2023-06-24T10:59:49;30.60;55.90
15413;DHT22;7805;49.554;7.632;2023-06-24T11:02:16;30.60;56.20
15413;DHT22;7805;49.554;7.632;2023-06-24T11:04:49;30.50;56.50
15413;DHT22;7805;49.554;7.632;2023-06-24T11:07:17;30.50;56.60
15413;DHT22;7805;49.554;7.632;2023-06-24T11:09:55;30.70;56.80
15413;DHT22;7805;49.554;7.632;2023-06-24T11:12:28;30.60;56.40
15413;DHT22;7805;49.554;7.632;2023-06-24T11:14:57;30.70;56.60
15413;DHT22;7805;49.554;7.632;2023-06-24T11:17:24;30.90;55.60
15413;DHT22;7805;49.554;7.632;2023-06-24T11:19:51;31.00;56.40
15413;DHT22;7805;49.554;7.632;2023-06-24T11:22:17;31.20;56.00
15413;DHT22;7805;49.554;7.632;2023-06-24T11:24:42;31.10;55.10
15413;DHT22;7805;49.554;7.632;2023-06-24T11:27:08;30.80;55.30
15413;DHT22;7805;49.554;7.632;2023-06-24T11:29:34;30.80;55.90
15413;DHT22;7805;49.554;7.632;2023-06-24T11:32:01;31.10;56.10
15413;DHT22;7805;49.554;7.632;2023-06-24T11:34:28;31.70;55.40
15413;DHT22;7805;49.554;7.632;2023-06-24T11:36:54;31.90;55.10
15413;DHT22;7805;49.554;7.632;2023-06-24T11:39:26;31.90;54.80
15413;DHT22;7805;49.554;7.632;2023-06-24T11:41:53;31.90;54.80
15413;DHT22;7805;49.554;7.632;2023-06-24T11:44:20;32.20;54.80
15413;DHT22;7805;49.554;7.632;2023-06-24T11:46:46;32.50;54.10
15413;DHT22;7805;49.554;7.632;2023-06-24T11:49:12;31.20;52.00
15413;DHT22;7805;49.554;7.632;2023-06-24T11:51:49;30.90;54.00
15413;DHT22;7805;49.554;7.632;2023-06-24T11:54:16;31.40;54.10
15413;DHT22;7805;49.554;7.632;2023-06-24T11:56:43;32.00;53.70
15413;DHT22;7805;49.554;7.632;2023-06-24T11:59:17;32.20;52.20
15413;DHT22;7805;49.554;7.632;2023-06-24T12:01:43;32.40;52.30
15413;DHT22;7805;49.554;7.632;2023-06-24T12:04:13;32.40;52.10
15413;DHT22;7805;49.554;7.632;2023-06-24T12:06:40;32.70;51.90
15413;DHT22;7805;49.554;7.632;2023-06-24T12:09:06;32.90;51.70
15413;DHT22;7805;49.554;7.632;2023-06-24T12:11:32;33.20;51.40
15413;DHT22;7805;49.554;7.632;2023-06-24T12:13:57;33.20;51.20
15413;DHT22;7805;49.554;7.632;2023-06-24T12:16:23;32.90;50.50
15413;DHT22;7805;49.554;7.632;2023-06-24T12:18:50;33.10;51.00
15413;DHT22;7805;49.554;7.632;2023-06-24T12:21:15;33.20;50.70
15413;DHT22;7805;49.554;7.632;2023-06-24T12:23:41;33.10;50.70
15413;DHT22;7805;49.554;7.632;2023-06-24T12:26:06;33.60;50.90
15413;DHT22;7805;49.554;7.632;2023-06-24T12:28:32;34.00;50.30
15413;DHT22;7805;49.554;7.632;2023-06-24T12:30:58;34.20;49.60
15413;DHT22;7805;49.554;7.632;2023-06-24T12:33:23;34.30;49.50
15413;DHT22;7805;49.554;7.632;2023-06-24T12:35:49;34.50;49.10
15413;DHT22;7805;49.554;7.632;2023-06-24T12:38:14;34.90;48.30
15413;DHT22;7805;49.554;7.632;2023-06-24T12:40:41;35.10;47.70
15413;DHT22;7805;49.554;7.632;2023-06-24T12:43:07;34.90;47.50
15413;DHT22;7805;49.554;7.632;2023-06-24T12:45:32;34.60;46.80
15413;DHT22;7805;49.554;7.632;2023-06-24T12:47:58;34.50;47.60
15413;DHT22;7805;49.554;7.632;2023-06-24T12:50:25;34.20;47.70
15413;DHT22;7805;49.554;7.632;2023-06-24T12:52:50;33.60;48.20
15413;DHT22;7805;49.554;7.632;2023-06-24T12:55:16;33.50;48.60
15413;DHT22;7805;49.554;7.632;2023-06-24T12:57:42;33.50;48.50
15413;DHT22;7805;49.554;7.632;2023-06-24T13:00:08;33.80;48.40
15413;DHT22;7805;49.554;7.632;2023-06-24T13:02:35;34.20;47.80
15413;DHT22;7805;49.554;7.632;2023-06-24T13:05:00;34.60;47.70
15413;DHT22;7805;49.554;7.632;2023-06-24T13:07:26;34.70;47.20
15413;DHT22;7805;49.554;7.632;2023-06-24T13:09:52;34.60;47.10
15413;DHT22;7805;49.554;7.632;2023-06-24T13:12:17;34.50;47.00
15413;DHT22;7805;49.554;7.632;2023-06-24T13:14:43;34.40;47.30
15413;DHT22;7805;49.554;7.632;2023-06-24T13:17:08;34.00;47.10
15413;DHT22;7805;49.554;7.632;2023-06-24T13:19:34;34.00;47.20
15413;DHT22;7805;49.554;7.632;2023-06-24T13:21:59;33.90;47.20
15413;DHT22;7805;49.554;7.632;2023-06-24T13:24:25;34.20;46.80
15413;DHT22;7805;49.554;7.632;2023-06-24T13:26:51;34.20;46.60
15413;DHT22;7805;49.554;7.632;2023-06-24T13:29:17;34.60;46.60
15413;DHT22;7805;49.554;7.632;2023-06-24T13:31:45;35.10;45.90
15413;DHT22;7805;49.554;7.632;2023-06-24T13:34:10;35.40;45.60
15413;DHT22;7805;49.554;7.632;2023-06-24T13:36:37;35.20;44.30
15413;DHT22;7805;49.554;7.632;2023-06-24T13:39:08;35.00;45.20
15413;DHT22;7805;49.554;7.632;2023-06-24T13:41:34;35.20;45.60
15413;DHT22;7805;49.554;7.632;2023-06-24T13:44:01;35.30;45.40
15413;DHT22;7805;49.554;7.632;2023-06-24T13:46:28;34.80;45.60
15413;DHT22;7805;49.554;7.632;2023-06-24T13:48:55;34.60;45.30
15413;DHT22;7805;49.554;7.632;2023-06-24T13:51:22;34.40;45.10
15413;DHT22;7805;49.554;7.632;2023-06-24T13:53:49;34.20;45.10
15413;DHT22;7805;49.554;7.632;2023-06-24T13:56:16;33.90;45.30
15413;DHT22;7805;49.554;7.632;2023-06-24T13:58:43;33.60;45.70
15413;DHT22;7805;49.554;7.632;2023-06-24T14:01:08;33.40;46.00
15413;DHT22;7805;49.554;7.632;2023-06-24T14:03:34;33.20;46.50
15413;DHT22;7805;49.554;7.632;2023-06-24T14:06:00;32.90;46.70
15413;DHT22;7805;49.554;7.632;2023-06-24T14:08:27;33.00;47.10
15413;DHT22;7805;49.554;7.632;2023-06-24T14:10:54;32.50;46.70
15413;DHT22;7805;49.554;7.632;2023-06-24T14:13:20;32.80;46.80
15413;DHT22;7805;49.554;7.632;2023-06-24T14:15:45;33.00;46.50
15413;DHT22;7805;49.554;7.632;2023-06-24T14:18:11;32.00;45.60
15413;DHT22;7805;49.554;7.632;2023-06-24T14:20:37;33.00;46.70
15413;DHT22;7805;49.554;7.632;2023-06-24T14:23:03;32.70;46.90
15413;DHT22;7805;49.554;7.632;2023-06-24T14:25:29;32.80;46.60
15413;DHT22;7805;49.554;7.632;2023-06-24T14:27:55;32.70;46.70
15413;DHT22;7805;49.554;7.632;2023-06-24T14:30:20;32.50;47.10
15413;DHT22;7805;49.554;7.632;2023-06-24T14:32:46;32.40;47.30
15413;DHT22;7805;49.554;7.632;2023-06-24T14:35:11;32.50;47.00
15413;DHT22;7805;49.554;7.632;2023-06-24T14:37:37;32.60;47.10
15413;DHT22;7805;49.554;7.632;2023-06-24T14:40:03;32.60;46.90
15413;DHT22;7805;49.554;7.632;2023-06-24T14:42:29;32.70;46.90
15413;DHT22;7805;49.554;7.632;2023-06-24T14:44:54;32.60;46.80
15413;DHT22;7805;49.554;7.632;2023-06-24T14:47:20;32.80;47.00
15413;DHT22;7805;49.554;7.632;2023-06-24T14:49:45;32.80;46.70
15413;DHT22;7805;49.554;7.632;2023-06-24T14:52:11;33.00;46.60
15413;DHT22;7805;49.554;7.632;2023-06-24T14:54:36;33.40;46.80
15413;DHT22;7805;49.554;7.632;2023-06-24T14:57:02;33.90;46.20
15413;DHT22;7805;49.554;7.632;2023-06-24T14:59:28;34.30;46.00
15413;DHT22;7805;49.554;7.632;2023-06-24T15:01:53;34.30;45.80
15413;DHT22;7805;49.554;7.632;2023-06-24T15:04:19;34.20;45.80
15413;DHT22;7805;49.554;7.632;2023-06-24T15:06:44;34.20;45.90
15413;DHT22;7805;49.554;7.632;2023-06-24T15:09:11;34.30;45.70
15413;DHT22;7805;49.554;7.632;2023-06-24T15:11:36;34.30;45.70
15413;DHT22;7805;49.554;7.632;2023-06-24T15:14:02;34.20;45.40
15413;DHT22;7805;49.554;7.632;2023-06-24T15:16:28;34.00;45.80
15413;DHT22;7805;49.554;7.632;2023-06-24T15:18:53;34.00;45.50
15413;DHT22;7805;49.554;7.632;2023-06-24T15:21:19;33.90;45.50
15413;DHT22;7805;49.554;7.632;2023-06-24T15:23:46;34.20;45.40
15413;DHT22;7805;49.554;7.632;2023-06-24T15:26:12;34.40;45.50
15413;DHT22;7805;49.554;7.632;2023-06-24T15:28:37;34.60;45.20
15413;DHT22;7805;49.554;7.632;2023-06-24T15:31:03;34.60;45.20
15413;DHT22;7805;49.554;7.632;2023-06-24T15:33:29;34.70;45.40
15413;DHT22;7805;49.554;7.632;2023-06-24T15:35:54;34.90;45.40
15413;DHT22;7805;49.554;7.632;2023-06-24T15:38:20;34.80;44.60
15413;DHT22;7805;49.554;7.632;2023-06-24T15:40:46;34.80;44.90
15413;DHT22;7805;49.554;7.632;2023-06-24T15:43:12;35.00;44.80
15413;DHT22;7805;49.554;7.632;2023-06-24T15:45:39;34.10;44.00
15413;DHT22;7805;49.554;7.632;2023-06-24T15:48:04;34.10;45.10
15413;DHT22;7805;49.554;7.632;2023-06-24T15:50:30;34.10;45.00
15413;DHT22;7805;49.554;7.632;2023-06-24T15:52:56;33.50;45.20
15413;DHT22;7805;49.554;7.632;2023-06-24T15:55:21;33.10;46.00
15413;DHT22;7805;49.554;7.632;2023-06-24T15:57:47;32.80;46.40
15413;DHT22;7805;49.554;7.632;2023-06-24T16:00:13;32.60;46.50